sensor_id;sensor_type;location;lat;lon;timestamp;pressure;altitude;pressure_sealevel;temperature;humidity
54936;BME280;40838;50.676;7.838;2024-02-14T00:01:59;98476.25;;;5.09;100.00
54936;BME280;40838;50.676;7.838;2024-02-14T00:04:26;98475.03;;;5.11;100.00
54936;BME280;40838;50.676;7.838;2024-02-14T00:06:53;98466.06;;;5.19;100.00
54936;BME280;40838;50.676;7.838;2024-02-14T00:09:20;98468.00;;;5.30;100.00
54936;BME280;40838;50.676;7.838;2024-02-14T00:11:47;98456.13;;;5.27;100.00
54936;BME280;40838;50.676;7.838;2024-02-14T00:14:15;98456.28;;;5.33;100.00
54936;BME280;40838;50.676;7.838;2024-02-14T00:16:42;98456.97;;;5.21;100.00
54936;BME280;40838;50.676;7.838;2024-02-14T00:19:10;98447.19;;;5.35;100.00
54936;BME280;40838;50.676;7.838;2024-02-14T00:21:37;98441.25;;;5.46;100.00
54936;BME280;40838;50.676;7.838;2024-02-14T00:24:05;98450.88;;;4.96;100.00
54936;BME280;40838;50.676;7.838;2024-02-14T00:26:32;98448.56;;;5.13;100.00
54936;BME280;40838;50.676;7.838;2024-02-14T00:28:59;98443.69;;;5.16;100.00
54936;BME280;40838;50.676;7.838;2024-02-14T00:31:28;98441.03;;;5.23;100.00
54936;BME280;40838;50.676;7.838;2024-02-14T00:33:55;98437.22;;;5.44;100.00
54936;BME280;40838;50.676;7.838;2024-02-14T00:36:23;98436.31;;;5.32;100.00
54936;BME280;40838;50.676;7.838;2024-02-14T00:38:50;98442.03;;;5.22;100.00
54936;BME280;40838;50.676;7.838;2024-02-14T00:41:17;98441.09;;;5.10;100.00
54936;BME280;40838;50.676;7.838;2024-02-14T00:43:44;98443.91;;;5.15;100.00
54936;BME280;40838;50.676;7.838;2024-02-14T00:46:15;98443.00;;;5.27;100.00
54936;BME280;40838;50.676;7.838;2024-02-14T00:48:44;98439.31;;;5.35;100.00
54936;BME280;40838;50.676;7.838;2024-02-14T00:51:11;98441.28;;;5.15;100.00
54936;BME280;40838;50.676;7.838;2024-02-14T00:53:38;98437.53;;;5.29;100.00
54936;BME280;40838;50.676;7.838;2024-02-14T00:56:06;98439.19;;;5.48;100.00
54936;BME280;40838;50.676;7.838;2024-02-14T00:58:34;98437.53;;;5.29;100.00
54936;BME280;40838;50.676;7.838;2024-02-14T01:01:01;98420.16;;;5.28;100.00
54936;BME280;40838;50.676;7.838;2024-02-14T01:03:28;98433.63;;;5.38;100.00
54936;BME280;40838;50.676;7.838;2024-02-14T01:05:56;98429.63;;;5.36;100.00
54936;BME280;40838;50.676;7.838;2024-02-14T01:08:23;98426.50;;;5.45;100.00
54936;BME280;40838;50.676;7.838;2024-02-14T01:10:50;98425.69;;;5.45;100.00
54936;BME280;40838;50.676;7.838;2024-02-14T01:13:17;98425.72;;;5.63;100.00
54936;BME280;40838;50.676;7.838;2024-02-14T01:15:44;98420.50;;;5.38;100.00
54936;BME280;40838;50.676;7.838;2024-02-14T01:18:11;98416.75;;;5.53;100.00
54936;BME280;40838;50.676;7.838;2024-02-14T01:20:39;98427.13;;;5.66;100.00
54936;BME280;40838;50.676;7.838;2024-02-14T01:23:07;98407.81;;;5.35;100.00
54936;BME280;40838;50.676;7.838;2024-02-14T01:25:35;98421.56;;;5.56;100.00
54936;BME280;40838;50.676;7.838;2024-02-14T01:28:02;98420.34;;;5.58;100.00
54936;BME280;40838;50.676;7.838;2024-02-14T01:30:30;98408.38;;;5.62;100.00
54936;BME280;40838;50.676;7.838;2024-02-14T01:32:57;98406.34;;;5.83;100.00
54936;BME280;40838;50.676;7.838;2024-02-14T01:35:26;98406.94;;;5.85;100.00
54936;BME280;40838;50.676;7.838;2024-02-14T01:37:53;98410.69;;;5.27;100.00
54936;BME280;40838;50.676;7.838;2024-02-14T01:40:21;98404.16;;;5.36;100.00
54936;BME280;40838;50.676;7.838;2024-02-14T01:42:48;98400.25;;;5.45;100.00
54936;BME280;40838;50.676;7.838;2024-02-14T01:45:18;98406.22;;;5.34;100.00
54936;BME280;40838;50.676;7.838;2024-02-14T01:47:45;98393.91;;;5.53;100.00
54936;BME280;40838;50.676;7.838;2024-02-14T01:50:12;98397.75;;;5.76;100.00
54936;BME280;40838;50.676;7.838;2024-02-14T01:52:39;98394.00;;;5.65;100.00
54936;BME280;40838;50.676;7.838;2024-02-14T01:55:08;98388.06;;;5.51;100.00
54936;BME280;40838;50.676;7.838;2024-02-14T01:57:38;98387.19;;;5.39;100.00
54936;BME280;40838;50.676;7.838;2024-02-14T02:00:06;98384.41;;;5.34;100.00
54936;BME280;40838;50.676;7.838;2024-02-14T02:02:38;98376.31;;;5.35;100.00
54936;BME280;40838;50.676;7.838;2024-02-14T02:05:10;98388.16;;;5.44;100.00
54936;BME280;40838;50.676;7.838;2024-02-14T02:07:37;98383.50;;;5.65;100.00
54936;BME280;40838;50.676;7.838;2024-02-14T02:10:09;98376.22;;;5.67;100.00
54936;BME280;40838;50.676;7.838;2024-02-14T02:12:37;98387.06;;;5.52;100.00
54936;BME280;40838;50.676;7.838;2024-02-14T02:15:06;98370.97;;;5.67;100.00
54936;BME280;40838;50.676;7.838;2024-02-14T02:17:36;98375.63;;;5.46;100.00
54936;BME280;40838;50.676;7.838;2024-02-14T02:20:04;98376.66;;;5.20;100.00
54936;BME280;40838;50.676;7.838;2024-02-14T02:22:32;98378.09;;;5.60;100.00
54936;BME280;40838;50.676;7.838;2024-02-14T02:25:02;98379.28;;;5.64;100.00
54936;BME280;40838;50.676;7.838;2024-02-14T02:27:33;98375.00;;;5.88;100.00
54936;BME280;40838;50.676;7.838;2024-02-14T02:30:04;98392.06;;;5.79;100.00
54936;BME280;40838;50.676;7.838;2024-02-14T02:32:31;98383.38;;;5.78;100.00
54936;BME280;40838;50.676;7.838;2024-02-14T02:34:58;98374.31;;;5.56;100.00
54936;BME280;40838;50.676;7.838;2024-02-14T02:37:26;98377.09;;;5.61;100.00
54936;BME280;40838;50.676;7.838;2024-02-14T02:39:55;98387.97;;;5.39;100.00
54936;BME280;40838;50.676;7.838;2024-02-14T02:42:23;98383.53;;;5.40;100.00
54936;BME280;40838;50.676;7.838;2024-02-14T02:44:50;98381.84;;;5.27;100.00
54936;BME280;40838;50.676;7.838;2024-02-14T02:47:17;98388.63;;;5.78;100.00
54936;BME280;40838;50.676;7.838;2024-02-14T02:49:44;98403.78;;;5.58;100.00
54936;BME280;40838;50.676;7.838;2024-02-14T02:52:12;98394.59;;;5.67;100.00
54936;BME280;40838;50.676;7.838;2024-02-14T02:54:39;98390.22;;;5.61;100.00
54936;BME280;40838;50.676;7.838;2024-02-14T02:57:07;98400.88;;;5.66;100.00
54936;BME280;40838;50.676;7.838;2024-02-14T02:59:36;98391.84;;;5.37;100.00
54936;BME280;40838;50.676;7.838;2024-02-14T03:02:03;98396.53;;;5.78;100.00
54936;BME280;40838;50.676;7.838;2024-02-14T03:04:34;98390.66;;;5.58;100.00
54936;BME280;40838;50.676;7.838;2024-02-14T03:07:02;98380.00;;;5.27;100.00
54936;BME280;40838;50.676;7.838;2024-02-14T03:09:34;98386.97;;;5.15;100.00
54936;BME280;40838;50.676;7.838;2024-02-14T03:12:01;98378.91;;;5.17;100.00
54936;BME280;40838;50.676;7.838;2024-02-14T03:14:29;98382.19;;;5.31;100.00
54936;BME280;40838;50.676;7.838;2024-02-14T03:16:59;98373.00;;;5.21;100.00
54936;BME280;40838;50.676;7.838;2024-02-14T03:19:27;98377.34;;;5.34;100.00
54936;BME280;40838;50.676;7.838;2024-02-14T03:21:54;98393.09;;;5.34;100.00
54936;BME280;40838;50.676;7.838;2024-02-14T03:24:21;98390.75;;;5.19;100.00
54936;BME280;40838;50.676;7.838;2024-02-14T03:26:51;98389.88;;;5.32;100.00
54936;BME280;40838;50.676;7.838;2024-02-14T03:29:19;98387.63;;;5.54;100.00
54936;BME280;40838;50.676;7.838;2024-02-14T03:31:46;98382.78;;;5.58;100.00
54936;BME280;40838;50.676;7.838;2024-02-14T03:34:14;98386.69;;;5.48;100.00
54936;BME280;40838;50.676;7.838;2024-02-14T03:36:41;98390.97;;;5.43;100.00
54936;BME280;40838;50.676;7.838;2024-02-14T03:39:09;98388.31;;;5.68;100.00
54936;BME280;40838;50.676;7.838;2024-02-14T03:41:37;98377.09;;;5.61;100.00
54936;BME280;40838;50.676;7.838;2024-02-14T03:44:04;98376.59;;;5.70;100.00
54936;BME280;40838;50.676;7.838;2024-02-14T03:46:32;98382.28;;;5.42;100.00
54936;BME280;40838;50.676;7.838;2024-02-14T03:49:01;98387.59;;;5.79;100.00
54936;BME280;40838;50.676;7.838;2024-02-14T03:51:29;98392.78;;;5.42;100.00
54936;BME280;40838;50.676;7.838;2024-02-14T03:53:56;98387.22;;;5.57;100.00
54936;BME280;40838;50.676;7.838;2024-02-14T03:56:24;98393.13;;;5.71;100.00
54936;BME280;40838;50.676;7.838;2024-02-14T03:58:51;98391.25;;;5.97;100.00
54936;BME280;40838;50.676;7.838;2024-02-14T04:01:18;98389.16;;;6.05;100.00
54936;BME280;40838;50.676;7.838;2024-02-14T04:03:46;98393.06;;;5.78;100.00
54936;BME280;40838;50.676;7.838;2024-02-14T04:06:15;98407.91;;;5.90;100.00
54936;BME280;40838;50.676;7.838;2024-02-14T04:08:43;98391.47;;;5.77;100.00
54936;BME280;40838;50.676;7.838;2024-02-14T04:11:10;98407.03;;;5.78;100.00
54936;BME280;40838;50.676;7.838;2024-02-14T04:13:39;98412.72;;;5.93;100.00
54936;BME280;40838;50.676;7.838;2024-02-14T04:16:06;98419.81;;;5.93;100.00
54936;BME280;40838;50.676;7.838;2024-02-14T04:18:34;98418.09;;;5.80;100.00
54936;BME280;40838;50.676;7.838;2024-02-14T04:21:01;98423.22;;;5.75;100.00
54936;BME280;40838;50.676;7.838;2024-02-14T04:23:29;98416.78;;;5.71;100.00
54936;BME280;40838;50.676;7.838;2024-02-14T04:25:57;98406.78;;;5.80;100.00
54936;BME280;40838;50.676;7.838;2024-02-14T04:28:24;98414.06;;;5.59;100.00
54936;BME280;40838;50.676;7.838;2024-02-14T04:30:51;98420.88;;;5.67;100.00
54936;BME280;40838;50.676;7.838;2024-02-14T04:33:19;98423.44;;;5.73;100.00
54936;BME280;40838;50.676;7.838;2024-02-14T04:35:47;98413.13;;;5.72;100.00
54936;BME280;40838;50.676;7.838;2024-02-14T04:38:14;98417.81;;;5.70;100.00
54936;BME280;40838;50.676;7.838;2024-02-14T04:40:42;98421.91;;;5.84;100.00
54936;BME280;40838;50.676;7.838;2024-02-14T04:43:09;98415.75;;;5.72;100.00
54936;BME280;40838;50.676;7.838;2024-02-14T04:45:37;98408.34;;;5.87;100.00
54936;BME280;40838;50.676;7.838;2024-02-14T04:48:05;98407.94;;;5.65;100.00
54936;BME280;40838;50.676;7.838;2024-02-14T04:50:33;98412.41;;;5.65;100.00
54936;BME280;40838;50.676;7.838;2024-02-14T04:53:00;98397.59;;;5.89;100.00
54936;BME280;40838;50.676;7.838;2024-02-14T04:55:27;98401.63;;;6.10;100.00
54936;BME280;40838;50.676;7.838;2024-02-14T04:57:54;98399.34;;;5.95;100.00
54936;BME280;40838;50.676;7.838;2024-02-14T05:00:23;98403.28;;;5.86;100.00
54936;BME280;40838;50.676;7.838;2024-02-14T05:02:50;98400.72;;;5.61;100.00
54936;BME280;40838;50.676;7.838;2024-02-14T05:05:20;98401.53;;;5.98;100.00
54936;BME280;40838;50.676;7.838;2024-02-14T05:07:47;98410.28;;;5.73;100.00
54936;BME280;40838;50.676;7.838;2024-02-14T05:10:14;98408.31;;;5.69;100.00
54936;BME280;40838;50.676;7.838;2024-02-14T05:12:41;98412.66;;;5.57;100.00
54936;BME280;40838;50.676;7.838;2024-02-14T05:15:08;98415.13;;;5.95;100.00
54936;BME280;40838;50.676;7.838;2024-02-14T05:17:41;98422.34;;;5.81;100.00
54936;BME280;40838;50.676;7.838;2024-02-14T05:20:09;98416.75;;;5.96;100.00
54936;BME280;40838;50.676;7.838;2024-02-14T05:22:37;98412.28;;;5.78;100.00
54936;BME280;40838;50.676;7.838;2024-02-14T05:25:05;98421.41;;;5.50;100.00
54936;BME280;40838;50.676;7.838;2024-02-14T05:27:33;98413.16;;;5.47;100.00
54936;BME280;40838;50.676;7.838;2024-02-14T05:30:00;98411.19;;;5.86;100.00
54936;BME280;40838;50.676;7.838;2024-02-14T05:32:31;98414.91;;;5.78;100.00
54936;BME280;40838;50.676;7.838;2024-02-14T05:35:00;98418.50;;;5.59;100.00
54936;BME280;40838;50.676;7.838;2024-02-14T05:37:31;98410.69;;;6.14;100.00
54936;BME280;40838;50.676;7.838;2024-02-14T05:39:58;98417.47;;;6.03;100.00
54936;BME280;40838;50.676;7.838;2024-02-14T05:42:26;98414.91;;;5.78;100.00
54936;BME280;40838;50.676;7.838;2024-02-14T05:44:53;98423.25;;;5.68;100.00
54936;BME280;40838;50.676;7.838;2024-02-14T05:47:20;98426.56;;;5.64;100.00
54936;BME280;40838;50.676;7.838;2024-02-14T05:49:47;98425.25;;;5.91;100.00
54936;BME280;40838;50.676;7.838;2024-02-14T05:52:16;98424.75;;;5.83;100.00
54936;BME280;40838;50.676;7.838;2024-02-14T05:54:44;98430.72;;;5.71;100.00
54936;BME280;40838;50.676;7.838;2024-02-14T05:57:12;98428.41;;;5.82;100.00
54936;BME280;40838;50.676;7.838;2024-02-14T05:59:39;98427.53;;;5.44;100.00
54936;BME280;40838;50.676;7.838;2024-02-14T06:02:07;98442.66;;;5.49;100.00
54936;BME280;40838;50.676;7.838;2024-02-14T06:04:35;98431.94;;;5.69;100.00
54936;BME280;40838;50.676;7.838;2024-02-14T06:07:03;98432.84;;;5.81;100.00
54936;BME280;40838;50.676;7.838;2024-02-14T06:09:33;98435.53;;;5.75;100.00
54936;BME280;40838;50.676;7.838;2024-02-14T06:12:00;98440.94;;;5.80;100.00
54936;BME280;40838;50.676;7.838;2024-02-14T06:14:28;98445.38;;;5.61;100.00
54936;BME280;40838;50.676;7.838;2024-02-14T06:16:56;98435.50;;;6.00;100.00
54936;BME280;40838;50.676;7.838;2024-02-14T06:19:23;98439.47;;;5.65;100.00
54936;BME280;40838;50.676;7.838;2024-02-14T06:21:51;98442.69;;;5.86;100.00
54936;BME280;40838;50.676;7.838;2024-02-14T06:24:18;98448.31;;;5.89;100.00
54936;BME280;40838;50.676;7.838;2024-02-14T06:26:49;98443.31;;;6.06;100.00
54936;BME280;40838;50.676;7.838;2024-02-14T06:29:16;98450.31;;;5.69;100.00
54936;BME280;40838;50.676;7.838;2024-02-14T06:31:43;98444.03;;;5.95;100.00
54936;BME280;40838;50.676;7.838;2024-02-14T06:34:10;98455.56;;;5.94;100.00
54936;BME280;40838;50.676;7.838;2024-02-14T06:36:37;98457.03;;;5.90;100.00
54936;BME280;40838;50.676;7.838;2024-02-14T06:39:06;98463.84;;;5.72;100.00
54936;BME280;40838;50.676;7.838;2024-02-14T06:41:34;98462.00;;;5.55;100.00
54936;BME280;40838;50.676;7.838;2024-02-14T06:44:03;98466.81;;;5.58;100.00
54936;BME280;40838;50.676;7.838;2024-02-14T06:46:30;98468.88;;;5.74;100.00
54936;BME280;40838;50.676;7.838;2024-02-14T06:48:57;98479.34;;;5.56;100.00
54936;BME280;40838;50.676;7.838;2024-02-14T06:51:24;98473.69;;;5.77;100.00
54936;BME280;40838;50.676;7.838;2024-02-14T06:53:51;98471.41;;;5.87;100.00
54936;BME280;40838;50.676;7.838;2024-02-14T06:56:18;98482.47;;;5.89;100.00
54936;BME280;40838;50.676;7.838;2024-02-14T06:58:45;98481.47;;;5.90;100.00
54936;BME280;40838;50.676;7.838;2024-02-14T07:01:19;98480.38;;;5.98;100.00
54936;BME280;40838;50.676;7.838;2024-02-14T07:03:48;98487.88;;;5.94;100.00
54936;BME280;40838;50.676;7.838;2024-02-14T07:06:15;98481.91;;;5.87;100.00
54936;BME280;40838;50.676;7.838;2024-02-14T07:08:42;98492.97;;;5.89;100.00
54936;BME280;40838;50.676;7.838;2024-02-14T07:11:10;98481.28;;;5.67;100.00
54936;BME280;40838;50.676;7.838;2024-02-14T07:13:37;98484.03;;;5.72;100.00
54936;BME280;40838;50.676;7.838;2024-02-14T07:16:05;98495.50;;;6.21;100.00
54936;BME280;40838;50.676;7.838;2024-02-14T07:18:35;98500.91;;;6.08;100.00
54936;BME280;40838;50.676;7.838;2024-02-14T07:21:02;98492.53;;;5.92;100.00
54936;BME280;40838;50.676;7.838;2024-02-14T07:23:31;98498.84;;;5.91;100.00
54936;BME280;40838;50.676;7.838;2024-02-14T07:25:59;98503.03;;;5.99;100.00
54936;BME280;40838;50.676;7.838;2024-02-14T07:28:27;98504.31;;;5.90;100.00
54936;BME280;40838;50.676;7.838;2024-02-14T07:30:54;98514.50;;;6.23;100.00
54936;BME280;40838;50.676;7.838;2024-02-14T07:33:21;98515.09;;;6.25;100.00
54936;BME280;40838;50.676;7.838;2024-02-14T07:35:50;98515.34;;;6.42;100.00
54936;BME280;40838;50.676;7.838;2024-02-14T07:38:17;98505.13;;;5.90;100.00
54936;BME280;40838;50.676;7.838;2024-02-14T07:40:45;98516.84;;;6.31;100.00
54936;BME280;40838;50.676;7.838;2024-02-14T07:43:12;98508.91;;;6.56;100.00
54936;BME280;40838;50.676;7.838;2024-02-14T07:45:38;98512.63;;;6.67;100.00
54936;BME280;40838;50.676;7.838;2024-02-14T07:48:06;98507.69;;;7.07;100.00
54936;BME280;40838;50.676;7.838;2024-02-14T07:50:34;98498.25;;;6.70;100.00
54936;BME280;40838;50.676;7.838;2024-02-14T07:53:03;98504.75;;;6.49;100.00
54936;BME280;40838;50.676;7.838;2024-02-14T07:55:31;98509.69;;;6.20;100.00
54936;BME280;40838;50.676;7.838;2024-02-14T07:57:58;98510.19;;;6.29;100.00
54936;BME280;40838;50.676;7.838;2024-02-14T08:00:26;98512.66;;;6.49;100.00
54936;BME280;40838;50.676;7.838;2024-02-14T08:02:53;98506.94;;;6.70;100.00
54936;BME280;40838;50.676;7.838;2024-02-14T08:05:20;98516.09;;;6.98;100.00
54936;BME280;40838;50.676;7.838;2024-02-14T08:07:47;98519.69;;;6.85;100.00
54936;BME280;40838;50.676;7.838;2024-02-14T08:10:16;98515.94;;;6.44;100.00
54936;BME280;40838;50.676;7.838;2024-02-14T08:12:43;98506.59;;;6.97;100.00
54936;BME280;40838;50.676;7.838;2024-02-14T08:15:10;98513.53;;;6.43;100.00
54936;BME280;40838;50.676;7.838;2024-02-14T08:17:37;98513.22;;;6.51;100.00
54936;BME280;40838;50.676;7.838;2024-02-14T08:20:05;98517.16;;;6.42;100.00
54936;BME280;40838;50.676;7.838;2024-02-14T08:22:32;98512.34;;;6.38;100.00
54936;BME280;40838;50.676;7.838;2024-02-14T08:24:59;98512.56;;;6.55;100.00
54936;BME280;40838;50.676;7.838;2024-02-14T08:27:28;98509.91;;;7.22;100.00
54936;BME280;40838;50.676;7.838;2024-02-14T08:29:57;98514.25;;;7.82;100.00
54936;BME280;40838;50.676;7.838;2024-02-14T08:32:24;98516.63;;;7.60;100.00
54936;BME280;40838;50.676;7.838;2024-02-14T08:34:51;98522.19;;;6.98;100.00
54936;BME280;40838;50.676;7.838;2024-02-14T08:37:18;98514.94;;;7.77;100.00
54936;BME280;40838;50.676;7.838;2024-02-14T08:39:45;98514.84;;;7.96;100.00
54936;BME280;40838;50.676;7.838;2024-02-14T08:42:12;98515.88;;;8.07;100.00
54936;BME280;40838;50.676;7.838;2024-02-14T08:44:40;98514.69;;;8.50;100.00
54936;BME280;40838;50.676;7.838;2024-02-14T08:47:07;98506.28;;;8.64;100.00
54936;BME280;40838;50.676;7.838;2024-02-14T08:49:34;98511.50;;;8.24;100.00
54936;BME280;40838;50.676;7.838;2024-02-14T08:52:02;98509.56;;;7.96;100.00
54936;BME280;40838;50.676;7.838;2024-02-14T08:54:29;98517.59;;;7.89;100.00
54936;BME280;40838;50.676;7.838;2024-02-14T08:56:58;98527.91;;;7.37;100.00
54936;BME280;40838;50.676;7.838;2024-02-14T08:59:25;98529.53;;;7.50;100.00
54936;BME280;40838;50.676;7.838;2024-02-14T09:01:54;98533.34;;;7.54;100.00
54936;BME280;40838;50.676;7.838;2024-02-14T09:04:21;98533.88;;;7.44;100.00
54936;BME280;40838;50.676;7.838;2024-02-14T09:06:48;98534.66;;;7.87;100.00
54936;BME280;40838;50.676;7.838;2024-02-14T09:09:15;98535.78;;;7.91;100.00
54936;BME280;40838;50.676;7.838;2024-02-14T09:11:42;98540.97;;;7.97;100.00
54936;BME280;40838;50.676;7.838;2024-02-14T09:14:09;98531.31;;;8.15;100.00
54936;BME280;40838;50.676;7.838;2024-02-14T09:16:36;98541.31;;;8.01;100.00
54936;BME280;40838;50.676;7.838;2024-02-14T09:19:05;98544.88;;;7.95;100.00
54936;BME280;40838;50.676;7.838;2024-02-14T09:21:33;98553.66;;;7.77;100.00
54936;BME280;40838;50.676;7.838;2024-02-14T09:24:01;98542.38;;;7.46;100.00
54936;BME280;40838;50.676;7.838;2024-02-14T09:26:28;98544.91;;;7.23;100.00
54936;BME280;40838;50.676;7.838;2024-02-14T09:28:55;98542.09;;;7.90;100.00
54936;BME280;40838;50.676;7.838;2024-02-14T09:31:23;98538.72;;;7.59;100.00
54936;BME280;40838;50.676;7.838;2024-02-14T09:33:50;98541.59;;;7.58;100.00
54936;BME280;40838;50.676;7.838;2024-02-14T09:36:19;98540.91;;;7.20;100.00
54936;BME280;40838;50.676;7.838;2024-02-14T09:38:47;98536.53;;;8.33;100.00
54936;BME280;40838;50.676;7.838;2024-02-14T09:41:16;98530.19;;;8.34;100.00
54936;BME280;40838;50.676;7.838;2024-02-14T09:43:46;98531.56;;;9.01;100.00
54936;BME280;40838;50.676;7.838;2024-02-14T09:46:14;98542.22;;;9.51;100.00
54936;BME280;40838;50.676;7.838;2024-02-14T09:48:43;98542.38;;;8.47;100.00
54936;BME280;40838;50.676;7.838;2024-02-14T09:51:11;98522.66;;;10.37;100.00
54936;BME280;40838;50.676;7.838;2024-02-14T09:53:40;98534.47;;;9.78;100.00
54936;BME280;40838;50.676;7.838;2024-02-14T09:56:10;98536.38;;;9.49;100.00
54936;BME280;40838;50.676;7.838;2024-02-14T09:58:40;98532.25;;;10.43;100.00
54936;BME280;40838;50.676;7.838;2024-02-14T10:01:07;98538.94;;;10.67;100.00
54936;BME280;40838;50.676;7.838;2024-02-14T10:03:34;98535.56;;;9.94;100.00
54936;BME280;40838;50.676;7.838;2024-02-14T10:06:02;98536.69;;;9.70;100.00
54936;BME280;40838;50.676;7.838;2024-02-14T10:08:30;98549.59;;;10.34;100.00
54936;BME280;40838;50.676;7.838;2024-02-14T10:10:58;98539.19;;;10.27;100.00
54936;BME280;40838;50.676;7.838;2024-02-14T10:13:27;98543.28;;;11.01;100.00
54936;BME280;40838;50.676;7.838;2024-02-14T10:15:55;98544.16;;;10.40;100.00
54936;BME280;40838;50.676;7.838;2024-02-14T10:18:22;98555.28;;;10.42;100.00
54936;BME280;40838;50.676;7.838;2024-02-14T10:20:54;98552.97;;;11.34;100.00
54936;BME280;40838;50.676;7.838;2024-02-14T10:23:21;98549.91;;;12.17;100.00
54936;BME280;40838;50.676;7.838;2024-02-14T10:25:50;98573.72;;;10.98;100.00
54936;BME280;40838;50.676;7.838;2024-02-14T10:28:18;98576.41;;;10.03;100.00
54936;BME280;40838;50.676;7.838;2024-02-14T10:30:47;98575.91;;;9.90;100.00
54936;BME280;40838;50.676;7.838;2024-02-14T10:33:15;98573.78;;;9.01;100.00
54936;BME280;40838;50.676;7.838;2024-02-14T10:35:42;98571.78;;;8.67;100.00
54936;BME280;40838;50.676;7.838;2024-02-14T10:38:11;98574.28;;;9.72;100.00
54936;BME280;40838;50.676;7.838;2024-02-14T10:40:39;98567.00;;;9.33;100.00
54936;BME280;40838;50.676;7.838;2024-02-14T10:43:06;98561.66;;;9.45;100.00
54936;BME280;40838;50.676;7.838;2024-02-14T10:45:36;98572.13;;;9.23;100.00
54936;BME280;40838;50.676;7.838;2024-02-14T10:48:04;98583.63;;;8.77;100.00
54936;BME280;40838;50.676;7.838;2024-02-14T10:50:33;98583.34;;;8.90;100.00
54936;BME280;40838;50.676;7.838;2024-02-14T10:53:04;98581.13;;;9.39;100.00
54936;BME280;40838;50.676;7.838;2024-02-14T10:55:33;98577.78;;;9.44;100.00
54936;BME280;40838;50.676;7.838;2024-02-14T10:58:01;98577.69;;;9.39;100.00
54936;BME280;40838;50.676;7.838;2024-02-14T11:00:29;98577.00;;;9.03;100.00
54936;BME280;40838;50.676;7.838;2024-02-14T11:02:59;98577.41;;;8.83;100.00
54936;BME280;40838;50.676;7.838;2024-02-14T11:05:27;98575.97;;;9.04;100.00
54936;BME280;40838;50.676;7.838;2024-02-14T11:07:54;98564.75;;;9.25;100.00
54936;BME280;40838;50.676;7.838;2024-02-14T11:10:22;98558.97;;;9.11;100.00
54936;BME280;40838;50.676;7.838;2024-02-14T11:12:50;98557.56;;;8.80;100.00
54936;BME280;40838;50.676;7.838;2024-02-14T11:15:19;98558.94;;;10.02;100.00
54936;BME280;40838;50.676;7.838;2024-02-14T11:17:47;98559.97;;;9.85;100.00
54936;BME280;40838;50.676;7.838;2024-02-14T11:20:18;98559.41;;;10.16;100.00
54936;BME280;40838;50.676;7.838;2024-02-14T11:22:56;98557.00;;;10.15;100.00
54936;BME280;40838;50.676;7.838;2024-02-14T11:25:28;98550.19;;;10.19;100.00
54936;BME280;40838;50.676;7.838;2024-02-14T11:28:00;98556.75;;;10.16;100.00
54936;BME280;40838;50.676;7.838;2024-02-14T11:30:31;98556.06;;;10.82;100.00
54936;BME280;40838;50.676;7.838;2024-02-14T11:33:15;98555.84;;;10.44;100.00
54936;BME280;40838;50.676;7.838;2024-02-14T11:35:45;98557.16;;;10.25;100.00
54936;BME280;40838;50.676;7.838;2024-02-14T11:38:13;98559.06;;;10.46;100.00
54936;BME280;40838;50.676;7.838;2024-02-14T11:40:40;98560.44;;;12.06;100.00
54936;BME280;40838;50.676;7.838;2024-02-14T11:43:11;98560.56;;;10.81;100.00
54936;BME280;40838;50.676;7.838;2024-02-14T11:45:39;98557.91;;;10.81;100.00
54936;BME280;40838;50.676;7.838;2024-02-14T11:48:08;98555.44;;;10.75;100.00
54936;BME280;40838;50.676;7.838;2024-02-14T11:50:36;98563.41;;;10.02;100.00
54936;BME280;40838;50.676;7.838;2024-02-14T11:53:07;98562.00;;;10.11;100.00
54936;BME280;40838;50.676;7.838;2024-02-14T11:55:36;98564.75;;;9.71;100.00
54936;BME280;40838;50.676;7.838;2024-02-14T11:58:06;98556.66;;;9.61;100.00
54936;BME280;40838;50.676;7.838;2024-02-14T12:00:37;98554.78;;;9.90;100.00
54936;BME280;40838;50.676;7.838;2024-02-14T12:03:06;98552.78;;;9.06;100.00
54936;BME280;40838;50.676;7.838;2024-02-14T12:05:34;98554.97;;;9.54;100.00
54936;BME280;40838;50.676;7.838;2024-02-14T12:08:03;98546.63;;;9.91;100.00
54936;BME280;40838;50.676;7.838;2024-02-14T12:10:32;98558.31;;;9.67;100.00
54936;BME280;40838;50.676;7.838;2024-02-14T12:13:06;98553.84;;;9.50;100.00
54936;BME280;40838;50.676;7.838;2024-02-14T12:15:37;98552.16;;;9.61;100.00
54936;BME280;40838;50.676;7.838;2024-02-14T12:18:05;98555.47;;;8.94;100.00
54936;BME280;40838;50.676;7.838;2024-02-14T12:20:32;98548.66;;;9.27;100.00
54936;BME280;40838;50.676;7.838;2024-02-14T12:22:59;98557.75;;;9.19;100.00
54936;BME280;40838;50.676;7.838;2024-02-14T12:25:26;98552.53;;;9.98;100.00
54936;BME280;40838;50.676;7.838;2024-02-14T12:27:56;98555.31;;;9.29;100.00
54936;BME280;40838;50.676;7.838;2024-02-14T12:30:41;98550.78;;;8.73;100.00
54936;BME280;40838;50.676;7.838;2024-02-14T12:33:10;98559.88;;;8.77;100.00
54936;BME280;40838;50.676;7.838;2024-02-14T12:35:37;98549.00;;;9.02;100.00
54936;BME280;40838;50.676;7.838;2024-02-14T12:38:07;98541.59;;;9.78;100.00
54936;BME280;40838;50.676;7.838;2024-02-14T12:40:35;98541.91;;;8.90;100.00
54936;BME280;40838;50.676;7.838;2024-02-14T12:43:04;98543.81;;;9.07;100.00
54936;BME280;40838;50.676;7.838;2024-02-14T12:45:32;98548.03;;;9.37;100.00
54936;BME280;40838;50.676;7.838;2024-02-14T12:47:59;98555.06;;;9.02;100.00
54936;BME280;40838;50.676;7.838;2024-02-14T12:50:26;98552.00;;;8.94;100.00
54936;BME280;40838;50.676;7.838;2024-02-14T12:52:53;98557.41;;;8.87;100.00
54936;BME280;40838;50.676;7.838;2024-02-14T12:55:21;98549.00;;;9.02;100.00
54936;BME280;40838;50.676;7.838;2024-02-14T12:57:49;98552.28;;;8.80;100.00
54936;BME280;40838;50.676;7.838;2024-02-14T13:00:18;98551.44;;;8.92;100.00
54936;BME280;40838;50.676;7.838;2024-02-14T13:02:46;98556.00;;;8.96;100.00
54936;BME280;40838;50.676;7.838;2024-02-14T13:05:14;98555.84;;;8.74;100.00